sensor_id;sensor_type;location;lat;lon;timestamp;P1;durP1;ratioP1;P2;durP2;ratioP2
21721;SDS011;11023;48.274;7.794;2022-12-10T00:01:16;41.90;;;25.00;;
21721;SDS011;11023;48.274;7.794;2022-12-10T00:03:43;36.17;;;22.95;;
21721;SDS011;11023;48.274;7.794;2022-12-10T00:06:11;36.80;;;23.75;;
21721;SDS011;11023;48.274;7.794;2022-12-10T00:08:38;42.78;;;25.88;;
21721;SDS011;11023;48.274;7.794;2022-12-10T00:11:05;33.95;;;22.48;;
21721;SDS011;11023;48.274;7.794;2022-12-10T00:13:33;37.08;;;23.15;;
21721;SDS011;11023;48.274;7.794;2022-12-10T00:15:59;37.33;;;23.02;;
21721;SDS011;11023;48.274;7.794;2022-12-10T00:18:26;32.78;;;22.27;;
21721;SDS011;11023;48.274;7.794;2022-12-10T00:20:51;32.10;;;23.25;;
21721;SDS011;11023;48.274;7.794;2022-12-10T00:23:18;36.10;;;23.42;;
21721;SDS011;11023;48.274;7.794;2022-12-10T00:25:43;35.75;;;23.38;;
21721;SDS011;11023;48.274;7.794;2022-12-10T00:28:09;29.67;;;21.05;;
21721;SDS011;11023;48.274;7.794;2022-12-10T00:30:35;28.95;;;20.63;;
21721;SDS011;11023;48.274;7.794;2022-12-10T00:33:00;27.73;;;19.85;;
21721;SDS011;11023;48.274;7.794;2022-12-10T00:35:26;31.33;;;21.38;;
21721;SDS011;11023;48.274;7.794;2022-12-10T00:37:52;34.55;;;22.13;;
21721;SDS011;11023;48.274;7.794;2022-12-10T00:40:18;49.92;;;31.25;;
21721;SDS011;11023;48.274;7.794;2022-12-10T00:42:44;46.70;;;28.33;;
21721;SDS011;11023;48.274;7.794;2022-12-10T00:45:10;40.65;;;26.45;;
21721;SDS011;11023;48.274;7.794;2022-12-10T00:47:35;42.20;;;26.08;;
21721;SDS011;11023;48.274;7.794;2022-12-10T00:50:01;38.08;;;26.35;;
21721;SDS011;11023;48.274;7.794;2022-12-10T00:52:27;38.58;;;25.67;;
21721;SDS011;11023;48.274;7.794;2022-12-10T00:54:53;40.47;;;25.02;;
21721;SDS011;11023;48.274;7.794;2022-12-10T00:57:18;33.72;;;23.83;;
21721;SDS011;11023;48.274;7.794;2022-12-10T00:59:44;36.40;;;24.42;;
21721;SDS011;11023;48.274;7.794;2022-12-10T01:02:10;41.75;;;25.00;;
21721;SDS011;11023;48.274;7.794;2022-12-10T01:04:35;41.58;;;25.38;;
21721;SDS011;11023;48.274;7.794;2022-12-10T01:07:04;43.17;;;25.20;;
21721;SDS011;11023;48.274;7.794;2022-12-10T01:09:30;36.38;;;24.27;;
21721;SDS011;11023;48.274;7.794;2022-12-10T01:11:57;41.83;;;24.23;;
21721;SDS011;11023;48.274;7.794;2022-12-10T01:14:33;40.40;;;24.90;;
21721;SDS011;11023;48.274;7.794;2022-12-10T01:17:07;39.35;;;24.80;;
21721;SDS011;11023;48.274;7.794;2022-12-10T01:22:28;39.47;;;24.48;;
21721;SDS011;11023;48.274;7.794;2022-12-10T01:24:59;35.58;;;22.73;;
21721;SDS011;11023;48.274;7.794;2022-12-10T01:27:33;35.67;;;23.90;;
21721;SDS011;11023;48.274;7.794;2022-12-10T01:30:08;37.65;;;23.33;;
21721;SDS011;11023;48.274;7.794;2022-12-10T01:32:39;39.65;;;24.80;;
21721;SDS011;11023;48.274;7.794;2022-12-10T01:35:11;37.25;;;23.50;;
21721;SDS011;11023;48.274;7.794;2022-12-10T01:37:54;37.03;;;22.48;;
21721;SDS011;11023;48.274;7.794;2022-12-10T01:41:07;36.83;;;23.67;;
21721;SDS011;11023;48.274;7.794;2022-12-10T01:46:39;40.25;;;24.67;;
21721;SDS011;11023;48.274;7.794;2022-12-10T01:49:42;40.72;;;23.70;;
21721;SDS011;11023;48.274;7.794;2022-12-10T01:58:44;38.92;;;24.40;;
21721;SDS011;11023;48.274;7.794;2022-12-10T02:01:26;35.78;;;22.77;;
21721;SDS011;11023;48.274;7.794;2022-12-10T02:14:29;38.78;;;24.25;;
21721;SDS011;11023;48.274;7.794;2022-12-10T02:17:20;36.53;;;23.52;;
21721;SDS011;11023;48.274;7.794;2022-12-10T02:20:42;40.30;;;25.75;;
21721;SDS011;11023;48.274;7.794;2022-12-10T02:23:50;36.45;;;23.73;;
21721;SDS011;11023;48.274;7.794;2022-12-10T02:27:04;37.92;;;24.17;;
21721;SDS011;11023;48.274;7.794;2022-12-10T02:29:47;44.65;;;25.52;;
21721;SDS011;11023;48.274;7.794;2022-12-10T02:32:29;37.42;;;23.52;;
21721;SDS011;11023;48.274;7.794;2022-12-10T02:35:28;43.92;;;24.17;;
21721;SDS011;11023;48.274;7.794;2022-12-10T02:38:42;40.75;;;24.48;;
21721;SDS011;11023;48.274;7.794;2022-12-10T02:41:30;40.00;;;23.95;;
21721;SDS011;11023;48.274;7.794;2022-12-10T02:50:35;40.40;;;24.95;;
21721;SDS011;11023;48.274;7.794;2022-12-10T02:53:23;40.95;;;23.88;;
21721;SDS011;11023;48.274;7.794;2022-12-10T03:00:09;43.42;;;25.58;;
21721;SDS011;11023;48.274;7.794;2022-12-10T03:09:22;38.20;;;24.50;;
21721;SDS011;11023;48.274;7.794;2022-12-10T03:12:59;42.47;;;26.42;;
21721;SDS011;11023;48.274;7.794;2022-12-10T03:15:17;40.72;;;26.38;;
21721;SDS011;11023;48.274;7.794;2022-12-10T03:18:16;40.50;;;26.45;;
21721;SDS011;11023;48.274;7.794;2022-12-10T03:21:17;44.83;;;27.30;;
21721;SDS011;11023;48.274;7.794;2022-12-10T03:24:00;42.78;;;26.65;;
21721;SDS011;11023;48.274;7.794;2022-12-10T03:26:42;37.67;;;24.00;;
21721;SDS011;11023;48.274;7.794;2022-12-10T03:29:31;40.80;;;26.10;;
21721;SDS011;11023;48.274;7.794;2022-12-10T03:32:24;43.72;;;27.10;;
21721;SDS011;11023;48.274;7.794;2022-12-10T03:38:08;41.40;;;25.52;;
21721;SDS011;11023;48.274;7.794;2022-12-10T03:43:55;39.50;;;24.40;;
21721;SDS011;11023;48.274;7.794;2022-12-10T03:46:51;42.30;;;26.75;;
21721;SDS011;11023;48.274;7.794;2022-12-10T03:49:46;41.10;;;26.02;;
21721;SDS011;11023;48.274;7.794;2022-12-10T03:52:29;41.47;;;25.98;;
21721;SDS011;11023;48.274;7.794;2022-12-10T03:54:57;40.92;;;25.70;;
21721;SDS011;11023;48.274;7.794;2022-12-10T03:57:34;43.97;;;26.85;;
21721;SDS011;11023;48.274;7.794;2022-12-10T04:03:01;42.90;;;26.15;;
21721;SDS011;11023;48.274;7.794;2022-12-10T04:18:08;46.25;;;27.40;;
21721;SDS011;11023;48.274;7.794;2022-12-10T04:30:30;49.30;;;29.60;;
21721;SDS011;11023;48.274;7.794;2022-12-10T04:33:02;50.03;;;29.50;;
21721;SDS011;11023;48.274;7.794;2022-12-10T04:35:57;55.22;;;30.67;;
21721;SDS011;11023;48.274;7.794;2022-12-10T04:38:47;49.85;;;30.13;;
21721;SDS011;11023;48.274;7.794;2022-12-10T04:44:30;48.90;;;29.05;;
21721;SDS011;11023;48.274;7.794;2022-12-10T04:47:16;53.65;;;30.50;;
21721;SDS011;11023;48.274;7.794;2022-12-10T04:50:24;54.35;;;30.00;;
21721;SDS011;11023;48.274;7.794;2022-12-10T04:58:22;49.75;;;28.67;;
21721;SDS011;11023;48.274;7.794;2022-12-10T05:01:08;51.65;;;29.15;;
21721;SDS011;11023;48.274;7.794;2022-12-10T05:03:53;52.60;;;30.52;;
21721;SDS011;11023;48.274;7.794;2022-12-10T05:06:31;50.22;;;30.00;;
21721;SDS011;11023;48.274;7.794;2022-12-10T05:09:06;53.15;;;30.92;;
21721;SDS011;11023;48.274;7.794;2022-12-10T05:11:36;56.35;;;30.95;;
21721;SDS011;11023;48.274;7.794;2022-12-10T05:14:08;49.97;;;30.35;;
21721;SDS011;11023;48.274;7.794;2022-12-10T05:17:44;51.17;;;28.90;;
21721;SDS011;11023;48.274;7.794;2022-12-10T05:23:39;49.88;;;29.63;;
21721;SDS011;11023;48.274;7.794;2022-12-10T05:28:52;52.97;;;31.17;;
21721;SDS011;11023;48.274;7.794;2022-12-10T05:31:24;57.25;;;30.60;;
21721;SDS011;11023;48.274;7.794;2022-12-10T05:33:55;64.65;;;32.28;;
21721;SDS011;11023;48.274;7.794;2022-12-10T05:36:32;55.28;;;31.63;;
21721;SDS011;11023;48.274;7.794;2022-12-10T05:39:24;51.92;;;30.65;;
21721;SDS011;11023;48.274;7.794;2022-12-10T05:47:37;60.55;;;32.38;;
21721;SDS011;11023;48.274;7.794;2022-12-10T05:50:09;69.75;;;34.60;;
21721;SDS011;11023;48.274;7.794;2022-12-10T05:52:49;63.63;;;33.58;;
21721;SDS011;11023;48.274;7.794;2022-12-10T05:55:28;60.60;;;33.13;;
21721;SDS011;11023;48.274;7.794;2022-12-10T05:58:06;58.58;;;32.30;;
21721;SDS011;11023;48.274;7.794;2022-12-10T06:00:50;57.20;;;31.65;;
21721;SDS011;11023;48.274;7.794;2022-12-10T06:03:22;55.42;;;30.17;;
21721;SDS011;11023;48.274;7.794;2022-12-10T06:05:51;56.65;;;31.00;;
21721;SDS011;11023;48.274;7.794;2022-12-10T06:08:22;54.30;;;29.63;;
21721;SDS011;11023;48.274;7.794;2022-12-10T06:10:48;54.95;;;30.60;;
21721;SDS011;11023;48.274;7.794;2022-12-10T06:13:22;56.35;;;30.77;;
21721;SDS011;11023;48.274;7.794;2022-12-10T06:15:52;56.13;;;31.60;;
21721;SDS011;11023;48.274;7.794;2022-12-10T06:18:49;54.67;;;30.13;;
21721;SDS011;11023;48.274;7.794;2022-12-10T06:21:21;61.75;;;31.40;;
21721;SDS011;11023;48.274;7.794;2022-12-10T06:23:55;64.82;;;32.92;;
21721;SDS011;11023;48.274;7.794;2022-12-10T06:26:29;62.38;;;32.50;;
21721;SDS011;11023;48.274;7.794;2022-12-10T06:28:58;61.67;;;32.78;;
21721;SDS011;11023;48.274;7.794;2022-12-10T06:31:30;65.90;;;33.05;;
21721;SDS011;11023;48.274;7.794;2022-12-10T06:34:07;69.35;;;33.83;;
21721;SDS011;11023;48.274;7.794;2022-12-10T06:36:47;78.43;;;35.63;;
21721;SDS011;11023;48.274;7.794;2022-12-10T06:39:21;75.22;;;36.05;;
21721;SDS011;11023;48.274;7.794;2022-12-10T06:41:58;75.50;;;35.45;;
21721;SDS011;11023;48.274;7.794;2022-12-10T06:44:36;75.93;;;36.08;;
21721;SDS011;11023;48.274;7.794;2022-12-10T06:53:57;72.63;;;35.75;;
21721;SDS011;11023;48.274;7.794;2022-12-10T06:56:29;67.68;;;33.67;;
21721;SDS011;11023;48.274;7.794;2022-12-10T07:02:05;69.87;;;34.63;;
21721;SDS011;11023;48.274;7.794;2022-12-10T07:04:38;71.45;;;35.10;;
21721;SDS011;11023;48.274;7.794;2022-12-10T07:07:30;74.60;;;35.00;;
21721;SDS011;11023;48.274;7.794;2022-12-10T07:10:19;75.05;;;36.03;;
21721;SDS011;11023;48.274;7.794;2022-12-10T07:12:56;78.72;;;35.75;;
21721;SDS011;11023;48.274;7.794;2022-12-10T07:15:36;76.13;;;36.90;;
21721;SDS011;11023;48.274;7.794;2022-12-10T07:18:07;76.05;;;36.75;;
21721;SDS011;11023;48.274;7.794;2022-12-10T07:27:17;74.00;;;36.15;;
21721;SDS011;11023;48.274;7.794;2022-12-10T07:33:01;72.40;;;35.70;;
21721;SDS011;11023;48.274;7.794;2022-12-10T07:35:51;73.72;;;36.10;;
21721;SDS011;11023;48.274;7.794;2022-12-10T07:38:45;73.95;;;36.25;;
21721;SDS011;11023;48.274;7.794;2022-12-10T07:41:22;66.78;;;34.55;;
21721;SDS011;11023;48.274;7.794;2022-12-10T07:44:03;73.70;;;35.80;;
21721;SDS011;11023;48.274;7.794;2022-12-10T07:46:37;68.13;;;33.53;;
21721;SDS011;11023;48.274;7.794;2022-12-10T07:49:12;70.82;;;34.97;;
21721;SDS011;11023;48.274;7.794;2022-12-10T07:51:55;69.68;;;34.75;;
21721;SDS011;11023;48.274;7.794;2022-12-10T07:54:23;68.30;;;34.58;;
21721;SDS011;11023;48.274;7.794;2022-12-10T07:56:55;77.53;;;37.25;;
21721;SDS011;11023;48.274;7.794;2022-12-10T07:59:21;68.57;;;35.58;;
21721;SDS011;11023;48.274;7.794;2022-12-10T08:01:47;68.25;;;35.00;;
21721;SDS011;11023;48.274;7.794;2022-12-10T08:04:19;66.70;;;35.28;;
21721;SDS011;11023;48.274;7.794;2022-12-10T08:06:48;69.05;;;35.75;;
21721;SDS011;11023;48.274;7.794;2022-12-10T08:09:25;69.43;;;35.35;;
21721;SDS011;11023;48.274;7.794;2022-12-10T08:11:54;67.60;;;34.72;;
21721;SDS011;11023;48.274;7.794;2022-12-10T08:14:30;67.40;;;35.33;;
21721;SDS011;11023;48.274;7.794;2022-12-10T08:16:57;66.68;;;34.33;;
21721;SDS011;11023;48.274;7.794;2022-12-10T08:19:25;66.85;;;34.55;;
21721;SDS011;11023;48.274;7.794;2022-12-10T08:22:00;65.80;;;33.80;;
21721;SDS011;11023;48.274;7.794;2022-12-10T08:24:35;68.07;;;35.05;;
21721;SDS011;11023;48.274;7.794;2022-12-10T08:27:03;67.13;;;33.60;;
21721;SDS011;11023;48.274;7.794;2022-12-10T08:29:33;70.13;;;35.53;;
21721;SDS011;11023;48.274;7.794;2022-12-10T08:32:03;72.32;;;35.60;;
21721;SDS011;11023;48.274;7.794;2022-12-10T08:34:41;72.80;;;35.60;;
21721;SDS011;11023;48.274;7.794;2022-12-10T08:37:30;71.88;;;35.83;;
21721;SDS011;11023;48.274;7.794;2022-12-10T08:40:05;65.90;;;34.90;;
21721;SDS011;11023;48.274;7.794;2022-12-10T08:42:31;66.38;;;35.20;;
21721;SDS011;11023;48.274;7.794;2022-12-10T08:45:02;75.85;;;37.00;;
21721;SDS011;11023;48.274;7.794;2022-12-10T08:47:40;70.88;;;36.10;;
21721;SDS011;11023;48.274;7.794;2022-12-10T08:50:09;68.53;;;35.08;;
21721;SDS011;11023;48.274;7.794;2022-12-10T08:52:53;65.75;;;35.40;;
21721;SDS011;11023;48.274;7.794;2022-12-10T08:55:22;65.47;;;35.47;;
21721;SDS011;11023;48.274;7.794;2022-12-10T08:57:52;65.70;;;34.08;;
21721;SDS011;11023;48.274;7.794;2022-12-10T09:00:27;65.65;;;34.38;;
21721;SDS011;11023;48.274;7.794;2022-12-10T09:03:00;69.80;;;35.28;;
21721;SDS011;11023;48.274;7.794;2022-12-10T09:05:29;67.40;;;35.10;;
21721;SDS011;11023;48.274;7.794;2022-12-10T09:08:21;69.25;;;35.55;;
21721;SDS011;11023;48.274;7.794;2022-12-10T09:10:50;68.18;;;35.85;;
21721;SDS011;11023;48.274;7.794;2022-12-10T09:13:18;69.43;;;35.28;;
21721;SDS011;11023;48.274;7.794;2022-12-10T09:15:51;71.22;;;36.85;;
21721;SDS011;11023;48.274;7.794;2022-12-10T09:18:21;68.25;;;35.72;;
21721;SDS011;11023;48.274;7.794;2022-12-10T09:20:48;69.38;;;36.08;;
21721;SDS011;11023;48.274;7.794;2022-12-10T09:23:14;69.38;;;36.25;;
21721;SDS011;11023;48.274;7.794;2022-12-10T09:25:40;69.03;;;35.17;;
21721;SDS011;11023;48.274;7.794;2022-12-10T09:28:06;68.80;;;35.83;;
21721;SDS011;11023;48.274;7.794;2022-12-10T09:30:31;68.57;;;35.35;;
21721;SDS011;11023;48.274;7.794;2022-12-10T09:33:03;71.03;;;35.72;;
21721;SDS011;11023;48.274;7.794;2022-12-10T09:35:32;68.88;;;34.53;;
21721;SDS011;11023;48.274;7.794;2022-12-10T09:37:58;70.50;;;36.10;;
21721;SDS011;11023;48.274;7.794;2022-12-10T09:40:58;69.95;;;35.55;;
21721;SDS011;11023;48.274;7.794;2022-12-10T09:51:29;68.88;;;35.58;;
21721;SDS011;11023;48.274;7.794;2022-12-10T09:54:18;69.65;;;35.78;;
21721;SDS011;11023;48.274;7.794;2022-12-10T09:56:52;71.70;;;35.63;;
21721;SDS011;11023;48.274;7.794;2022-12-10T09:59:21;73.38;;;35.63;;
21721;SDS011;11023;48.274;7.794;2022-12-10T10:02:45;71.82;;;36.38;;
21721;SDS011;11023;48.274;7.794;2022-12-10T10:05:13;67.38;;;34.05;;
21721;SDS011;11023;48.274;7.794;2022-12-10T10:07:45;71.15;;;35.20;;
21721;SDS011;11023;48.274;7.794;2022-12-10T10:10:30;68.95;;;34.30;;
21721;SDS011;11023;48.274;7.794;2022-12-10T10:15:45;66.85;;;35.30;;
21721;SDS011;11023;48.274;7.794;2022-12-10T10:21:07;71.43;;;35.92;;
21721;SDS011;11023;48.274;7.794;2022-12-10T10:24:12;70.00;;;34.33;;
21721;SDS011;11023;48.274;7.794;2022-12-10T10:26:56;66.18;;;34.72;;
21721;SDS011;11023;48.274;7.794;2022-12-10T10:29:50;67.22;;;34.28;;
21721;SDS011;11023;48.274;7.794;2022-12-10T10:35:33;65.93;;;33.47;;
21721;SDS011;11023;48.274;7.794;2022-12-10T10:38:15;64.53;;;32.55;;
21721;SDS011;11023;48.274;7.794;2022-12-10T10:40:55;69.75;;;34.88;;
21721;SDS011;11023;48.274;7.794;2022-12-10T10:43:47;72.60;;;35.15;;
21721;SDS011;11023;48.274;7.794;2022-12-10T10:46:22;68.70;;;34.92;;
21721;SDS011;11023;48.274;7.794;2022-12-10T10:52:04;71.53;;;35.78;;
21721;SDS011;11023;48.274;7.794;2022-12-10T10:54:45;70.95;;;35.05;;
21721;SDS011;11023;48.274;7.794;2022-12-10T10:59:53;67.80;;;34.88;;
21721;SDS011;11023;48.274;7.794;2022-12-10T11:02:50;67.40;;;33.88;;
21721;SDS011;11023;48.274;7.794;2022-12-10T11:05:29;66.30;;;34.72;;
21721;SDS011;11023;48.274;7.794;2022-12-10T11:08:03;68.00;;;33.90;;
21721;SDS011;11023;48.274;7.794;2022-12-10T11:13:46;74.22;;;36.42;;
21721;SDS011;11023;48.274;7.794;2022-12-10T11:18:54;66.45;;;33.78;;
21721;SDS011;11023;48.274;7.794;2022-12-10T11:21:52;64.95;;;34.50;;
21721;SDS011;11023;48.274;7.794;2022-12-10T11:24:21;62.38;;;33.35;;
21721;SDS011;11023;48.274;7.794;2022-12-10T11:26:57;68.38;;;35.65;;
21721;SDS011;11023;48.274;7.794;2022-12-10T11:32:55;66.78;;;33.15;;
21721;SDS011;11023;48.274;7.794;2022-12-10T11:35:43;60.35;;;31.75;;
21721;SDS011;11023;48.274;7.794;2022-12-10T12:01:26;62.75;;;32.17;;
21721;SDS011;11023;48.274;7.794;2022-12-10T12:15:18;60.42;;;31.85;;
21721;SDS011;11023;48.274;7.794;2022-12-10T12:17:57;55.88;;;30.67;;
21721;SDS011;11023;48.274;7.794;2022-12-10T12:20:37;55.72;;;30.08;;
21721;SDS011;11023;48.274;7.794;2022-12-10T12:23:23;59.55;;;31.70;;
21721;SDS011;11023;48.274;7.794;2022-12-10T12:32:21;55.20;;;31.05;;
21721;SDS011;11023;48.274;7.794;2022-12-10T12:34:59;56.00;;;31.15;;
21721;SDS011;11023;48.274;7.794;2022-12-10T12:37:57;54.63;;;29.63;;
21721;SDS011;11023;48.274;7.794;2022-12-10T12:40:30;55.22;;;30.27;;
21721;SDS011;11023;48.274;7.794;2022-12-10T12:43:14;56.83;;;30.83;;
21721;SDS011;11023;48.274;7.794;2022-12-10T12:45:54;56.15;;;30.65;;
21721;SDS011;11023;48.274;7.794;2022-12-10T12:51:24;54.53;;;30.88;;
21721;SDS011;11023;48.274;7.794;2022-12-10T12:54:13;56.25;;;30.23;;
21721;SDS011;11023;48.274;7.794;2022-12-10T12:56:53;55.65;;;30.38;;
21721;SDS011;11023;48.274;7.794;2022-12-10T13:03:07;54.45;;;28.77;;
21721;SDS011;11023;48.274;7.794;2022-12-10T13:05:46;50.47;;;29.48;;
21721;SDS011;11023;48.274;7.794;2022-12-10T13:14:02;51.03;;;29.55;;
21721;SDS011;11023;48.274;7.794;2022-12-10T13:22:08;51.30;;;28.15;;
21721;SDS011;11023;48.274;7.794;2022-12-10T13:45:05;53.55;;;29.42;;
21721;SDS011;11023;48.274;7.794;2022-12-10T13:51:04;56.67;;;29.52;;
21721;SDS011;11023;48.274;7.794;2022-12-10T14:02:19;55.60;;;30.67;;
21721;SDS011;11023;48.274;7.794;2022-12-10T14:08:37;53.55;;;29.88;;
21721;SDS011;11023;48.274;7.794;2022-12-10T14:11:27;53.35;;;30.33;;
21721;SDS011;11023;48.274;7.794;2022-12-10T14:14:40;57.53;;;31.50;;
21721;SDS011;11023;48.274;7.794;2022-12-10T14:17:20;57.85;;;31.33;;
21721;SDS011;11023;48.274;7.794;2022-12-10T14:19:51;52.53;;;30.50;;
21721;SDS011;11023;48.274;7.794;2022-12-10T14:22:37;55.83;;;31.02;;
21721;SDS011;11023;48.274;7.794;2022-12-10T14:25:17;55.45;;;31.55;;
21721;SDS011;11023;48.274;7.794;2022-12-10T14:27:51;52.00;;;30.05;;
21721;SDS011;11023;48.274;7.794;2022-12-10T14:30:22;51.03;;;29.30;;
21721;SDS011;11023;48.274;7.794;2022-12-10T14:32:58;50.60;;;29.67;;
21721;SDS011;11023;48.274;7.794;2022-12-10T14:35:27;53.17;;;30.47;;
21721;SDS011;11023;48.274;7.794;2022-12-10T14:38:00;51.53;;;29.08;;
21721;SDS011;11023;48.274;7.794;2022-12-10T14:40:39;53.53;;;29.92;;
21721;SDS011;11023;48.274;7.794;2022-12-10T14:43:29;55.50;;;31.77;;
21721;SDS011;11023;48.274;7.794;2022-12-10T14:46:06;59.63;;;31.77;;
21721;SDS011;11023;48.274;7.794;2022-12-10T14:49:00;54.60;;;30.95;;
21721;SDS011;11023;48.274;7.794;2022-12-10T14:51:30;57.40;;;33.63;;
21721;SDS011;11023;48.274;7.794;2022-12-10T14:53:58;62.10;;;34.72;;
21721;SDS011;11023;48.274;7.794;2022-12-10T14:56:33;57.53;;;33.25;;
21721;SDS011;11023;48.274;7.794;2022-12-10T14:59:09;54.72;;;30.20;;
21721;SDS011;11023;48.274;7.794;2022-12-10T15:01:56;54.60;;;30.90;;
21721;SDS011;11023;48.274;7.794;2022-12-10T15:04:41;50.58;;;30.13;;
21721;SDS011;11023;48.274;7.794;2022-12-10T15:07:23;55.50;;;31.23;;
21721;SDS011;11023;48.274;7.794;2022-12-10T15:10:12;54.95;;;29.73;;
21721;SDS011;11023;48.274;7.794;2022-12-10T15:12:51;51.72;;;30.98;;
21721;SDS011;11023;48.274;7.794;2022-12-10T15:15:39;52.15;;;30.58;;
21721;SDS011;11023;48.274;7.794;2022-12-10T15:28:36;63.70;;;35.08;;
21721;SDS011;11023;48.274;7.794;2022-12-10T15:34:02;111.82;;;49.83;;
21721;SDS011;11023;48.274;7.794;2022-12-10T15:36:43;95.00;;;46.85;;
21721;SDS011;11023;48.274;7.794;2022-12-10T15:41:55;92.03;;;47.33;;
21721;SDS011;11023;48.274;7.794;2022-12-10T15:49:50;66.30;;;35.83;;
21721;SDS011;11023;48.274;7.794;2022-12-10T15:52:45;61.42;;;37.08;;
21721;SDS011;11023;48.274;7.794;2022-12-10T15:55:12;57.97;;;34.08;;
21721;SDS011;11023;48.274;7.794;2022-12-10T15:57:55;53.50;;;32.15;;
21721;SDS011;11023;48.274;7.794;2022-12-10T16:00:35;60.03;;;34.45;;
21721;SDS011;11023;48.274;7.794;2022-12-10T16:03:15;65.15;;;35.95;;
21721;SDS011;11023;48.274;7.794;2022-12-10T16:05:49;61.55;;;35.10;;
21721;SDS011;11023;48.274;7.794;2022-12-10T16:08:25;57.70;;;34.65;;
21721;SDS011;11023;48.274;7.794;2022-12-10T16:10:54;57.70;;;34.13;;
21721;SDS011;11023;48.274;7.794;2022-12-10T16:13:44;54.67;;;32.53;;
21721;SDS011;11023;48.274;7.794;2022-12-10T16:16:18;53.72;;;31.27;;
21721;SDS011;11023;48.274;7.794;2022-12-10T16:18:47;53.30;;;32.50;;
21721;SDS011;11023;48.274;7.794;2022-12-10T16:21:24;56.33;;;33.17;;
21721;SDS011;11023;48.274;7.794;2022-12-10T16:23:56;49.10;;;30.83;;
21721;SDS011;11023;48.274;7.794;2022-12-10T16:26:24;57.00;;;33.17;;
21721;SDS011;11023;48.274;7.794;2022-12-10T16:29:10;47.85;;;28.85;;
21721;SDS011;11023;48.274;7.794;2022-12-10T16:31:46;53.00;;;32.63;;
21721;SDS011;11023;48.274;7.794;2022-12-10T16:34:47;48.03;;;29.08;;
21721;SDS011;11023;48.274;7.794;2022-12-10T16:37:29;50.22;;;29.35;;
21721;SDS011;11023;48.274;7.794;2022-12-10T16:40:08;50.83;;;30.90;;
21721;SDS011;11023;48.274;7.794;2022-12-10T16:42:59;54.90;;;31.50;;
21721;SDS011;11023;48.274;7.794;2022-12-10T16:45:37;55.92;;;33.72;;
21721;SDS011;11023;48.274;7.794;2022-12-10T16:48:32;48.00;;;30.02;;
21721;SDS011;11023;48.274;7.794;2022-12-10T16:50:58;46.65;;;27.95;;
21721;SDS011;11023;48.274;7.794;2022-12-10T16:53:37;48.65;;;28.15;;
21721;SDS011;11023;48.274;7.794;2022-12-10T16:56:19;45.85;;;28.00;;
21721;SDS011;11023;48.274;7.794;2022-12-10T16:59:11;47.22;;;28.58;;
21721;SDS011;11023;48.274;7.794;2022-12-10T17:01:39;50.97;;;31.00;;
21721;SDS011;11023;48.274;7.794;2022-12-10T17:04:12;46.15;;;28.10;;
21721;SDS011;11023;48.274;7.794;2022-12-10T17:06:42;100.30;;;53.80;;
21721;SDS011;11023;48.274;7.794;2022-12-10T17:09:28;54.10;;;33.00;;
21721;SDS011;11023;48.274;7.794;2022-12-10T17:11:57;48.10;;;28.48;;
21721;SDS011;11023;48.274;7.794;2022-12-10T17:14:35;46.70;;;27.88;;
21721;SDS011;11023;48.274;7.794;2022-12-10T17:17:14;44.60;;;27.15;;
21721;SDS011;11023;48.274;7.794;2022-12-10T17:19:55;42.63;;;27.20;;
21721;SDS011;11023;48.274;7.794;2022-12-10T17:22:28;49.20;;;29.42;;
21721;SDS011;11023;48.274;7.794;2022-12-10T17:25:03;44.17;;;27.13;;
21721;SDS011;11023;48.274;7.794;2022-12-10T17:27:29;48.70;;;29.10;;
21721;SDS011;11023;48.274;7.794;2022-12-10T17:30:15;72.13;;;42.38;;
21721;SDS011;11023;48.274;7.794;2022-12-10T17:32:49;73.13;;;43.70;;
21721;SDS011;11023;48.274;7.794;2022-12-10T17:35:20;60.58;;;35.50;;
21721;SDS011;11023;48.274;7.794;2022-12-10T17:37:52;58.92;;;34.65;;
21721;SDS011;11023;48.274;7.794;2022-12-10T17:40:30;58.88;;;34.85;;
21721;SDS011;11023;48.274;7.794;2022-12-10T17:43:30;61.92;;;35.67;;
21721;SDS011;11023;48.274;7.794;2022-12-10T17:46:13;69.15;;;42.65;;
21721;SDS011;11023;48.274;7.794;2022-12-10T17:48:54;58.63;;;36.55;;
21721;SDS011;11023;48.274;7.794;2022-12-10T17:54:51;47.60;;;29.77;;
21721;SDS011;11023;48.274;7.794;2022-12-10T17:57:26;49.47;;;30.08;;
21721;SDS011;11023;48.274;7.794;2022-12-10T18:00:18;52.03;;;31.30;;
21721;SDS011;11023;48.274;7.794;2022-12-10T18:03:02;54.45;;;32.33;;
21721;SDS011;11023;48.274;7.794;2022-12-10T18:05:43;54.33;;;32.85;;
21721;SDS011;11023;48.274;7.794;2022-12-10T18:10:55;58.30;;;35.72;;
21721;SDS011;11023;48.274;7.794;2022-12-10T18:13:22;64.10;;;38.28;;
21721;SDS011;11023;48.274;7.794;2022-12-10T18:15:48;62.60;;;37.55;;
21721;SDS011;11023;48.274;7.794;2022-12-10T18:18:14;53.22;;;32.65;;
21721;SDS011;11023;48.274;7.794;2022-12-10T18:20:40;57.08;;;34.63;;
21721;SDS011;11023;48.274;7.794;2022-12-10T18:23:07;61.45;;;36.05;;
21721;SDS011;11023;48.274;7.794;2022-12-10T18:25:35;61.38;;;36.83;;
21721;SDS011;11023;48.274;7.794;2022-12-10T18:28:03;61.83;;;35.70;;
21721;SDS011;11023;48.274;7.794;2022-12-10T18:30:47;54.83;;;33.05;;
21721;SDS011;11023;48.274;7.794;2022-12-10T18:33:14;52.45;;;32.47;;
21721;SDS011;11023;48.274;7.794;2022-12-10T18:35:43;50.60;;;31.17;;
21721;SDS011;11023;48.274;7.794;2022-12-10T18:38:15;47.45;;;30.75;;
21721;SDS011;11023;48.274;7.794;2022-12-10T18:40:44;47.90;;;29.92;;
21721;SDS011;11023;48.274;7.794;2022-12-10T18:43:10;49.00;;;30.75;;
21721;SDS011;11023;48.274;7.794;2022-12-10T18:45:36;51.85;;;32.60;;
21721;SDS011;11023;48.274;7.794;2022-12-10T18:48:01;52.05;;;30.33;;
21721;SDS011;11023;48.274;7.794;2022-12-10T18:50:28;50.65;;;31.35;;
21721;SDS011;11023;48.274;7.794;2022-12-10T18:52:54;52.03;;;32.85;;
21721;SDS011;11023;48.274;7.794;2022-12-10T18:55:21;48.88;;;30.60;;
21721;SDS011;11023;48.274;7.794;2022-12-10T18:57:49;50.38;;;32.03;;
21721;SDS011;11023;48.274;7.794;2022-12-10T19:00:16;53.85;;;32.35;;
21721;SDS011;11023;48.274;7.794;2022-12-10T19:02:45;50.75;;;32.50;;
21721;SDS011;11023;48.274;7.794;2022-12-10T19:05:11;54.15;;;32.42;;
21721;SDS011;11023;48.274;7.794;2022-12-10T19:07:38;53.40;;;32.78;;
21721;SDS011;11023;48.274;7.794;2022-12-10T19:10:05;50.33;;;31.10;;
21721;SDS011;11023;48.274;7.794;2022-12-10T19:12:41;45.63;;;29.65;;
21721;SDS011;11023;48.274;7.794;2022-12-10T19:15:07;54.95;;;33.05;;
21721;SDS011;11023;48.274;7.794;2022-12-10T19:17:33;49.47;;;30.10;;
21721;SDS011;11023;48.274;7.794;2022-12-10T19:19:59;49.72;;;31.08;;
21721;SDS011;11023;48.274;7.794;2022-12-10T19:22:25;49.95;;;31.85;;
21721;SDS011;11023;48.274;7.794;2022-12-10T19:24:51;53.10;;;33.63;;
21721;SDS011;11023;48.274;7.794;2022-12-10T19:27:16;48.70;;;29.77;;
21721;SDS011;11023;48.274;7.794;2022-12-10T19:29:42;45.30;;;28.90;;
21721;SDS011;11023;48.274;7.794;2022-12-10T19:32:08;48.70;;;30.55;;
21721;SDS011;11023;48.274;7.794;2022-12-10T19:34:34;48.42;;;29.02;;
21721;SDS011;11023;48.274;7.794;2022-12-10T19:37:00;49.72;;;29.48;;
21721;SDS011;11023;48.274;7.794;2022-12-10T19:39:26;77.15;;;40.42;;
21721;SDS011;11023;48.274;7.794;2022-12-10T19:41:54;50.60;;;32.00;;